Time;durP1;ratioP1;P1;durP2;ratioP2;P2;SDS_P1;SDS_P2;PMS_P1;PMS_P2;Temp;Humidity;BMP_temperature;BMP_pressure;BME280_temperature;BME280_humidity;BME280_pressure;Samples;Min_cycle;Max_cycle;Signal;HPM_P1;HPM_P2
2022/01/29 00:01:18;;;;;;;6.10;2.92;;;;;;;6.93;79.62;101307.75;5024729;28;20053;-57
2022/01/29 00:03:44;;;;;;;12.60;3.78;;;;;;;6.97;79.63;101305.28;5027309;28;20729;-54
2022/01/29 00:06:11;;;;;;;6.78;2.58;;;;;;;6.98;80.38;101296.72;5025459;28;20855;-57
2022/01/29 00:08:38;;;;;;;6.63;2.60;;;;;;;7.00;79.24;101302.81;5027288;28;20050;-57
2022/01/29 00:11:12;;;;;;;5.47;2.40;;;;;;;7.03;80.77;101297.75;5026899;28;20046;-57
2022/01/29 00:13:39;;;;;;;3.70;1.92;;;;;;;7.03;79.89;101293.47;5029129;28;20062;-56
2022/01/29 00:16:06;;;;;;;3.08;2.22;;;;;;;7.11;80.88;101290.25;5027915;28;20322;-55
2022/01/29 00:18:34;;;;;;;3.88;1.27;;;;;;;7.16;80.39;101294.75;5028898;28;20776;-58
2022/01/29 00:21:02;;;;;;;4.13;2.42;;;;;;;7.21;79.86;101297.47;5027964;28;20064;-53
2022/01/29 00:23:29;;;;;;;5.65;2.45;;;;;;;7.24;80.03;101289.84;5027804;28;20053;-54
2022/01/29 00:25:55;;;;;;;8.50;2.72;;;;;;;7.26;80.61;101289.88;5028297;28;20045;-56
2022/01/29 00:28:22;;;;;;;5.45;2.42;;;;;;;7.27;78.93;101284.78;5030512;28;20157;-57
2022/01/29 00:30:49;;;;;;;8.02;2.55;;;;;;;7.31;79.16;101278.00;5023153;28;20056;-54
2022/01/29 00:33:15;;;;;;;6.10;2.22;;;;;;;7.33;79.18;101276.38;5026591;28;20103;-57
2022/01/29 00:35:42;;;;;;;2.83;1.90;;;;;;;7.36;79.81;101271.28;5027010;28;20096;-59
2022/01/29 00:38:09;;;;;;;4.50;1.75;;;;;;;7.37;80.48;101260.16;5027418;28;20057;-58
2022/01/29 00:40:37;;;;;;;5.68;1.67;;;;;;;7.39;78.94;101260.19;5026274;28;21036;-55
2022/01/29 00:43:05;;;;;;;5.15;1.77;;;;;;;7.39;79.32;101263.66;5031480;28;20048;-58
2022/01/29 00:45:33;;;;;;;4.18;1.92;;;;;;;7.38;79.57;101259.31;5027943;28;20064;-59
2022/01/29 00:47:59;;;;;;;3.53;1.73;;;;;;;7.36;79.89;101263.53;5027892;28;20053;-55
2022/01/29 00:50:26;;;;;;;4.35;1.88;;;;;;;7.36;79.74;101260.97;5024605;28;20612;-59
2022/01/29 00:52:53;;;;;;;5.25;1.38;;;;;;;7.36;79.35;101262.69;5028212;28;20073;-57
2022/01/29 00:55:19;;;;;;;1.88;0.90;;;;;;;7.39;80.49;101253.34;5024857;28;20053;-59
2022/01/29 00:57:46;;;;;;;2.63;1.00;;;;;;;7.41;81.11;101249.13;5030545;28;20779;-56
2022/01/29 01:00:14;;;;;;;2.38;1.33;;;;;;;7.47;79.27;101240.69;5027173;28;20669;-58
2022/01/29 01:02:43;;;;;;;3.70;2.10;;;;;;;7.54;80.29;101244.31;5030679;28;20393;-58
2022/01/29 01:05:10;;;;;;;1.35;0.65;;;;;;;7.58;79.66;101235.84;5025814;28;20046;-57
2022/01/29 01:07:38;;;;;;;2.35;1.02;;;;;;;7.64;81.13;101242.88;5028210;28;20732;-57
2022/01/29 01:10:07;;;;;;;2.80;0.68;;;;;;;7.68;80.41;101236.97;5032507;28;20049;-57
2022/01/29 01:12:34;;;;;;;6.18;1.10;;;;;;;7.70;80.04;101238.75;5031118;28;20056;-58
2022/01/29 01:15:02;;;;;;;2.10;0.90;;;;;;;7.75;80.74;101243.16;5029591;28;20088;-58
2022/01/29 01:17:28;;;;;;;1.83;0.70;;;;;;;7.78;80.92;101243.25;5029049;28;20096;-56
2022/01/29 01:19:55;;;;;;;1.90;0.70;;;;;;;7.86;81.19;101235.75;5025257;28;20050;-57
2022/01/29 01:22:21;;;;;;;1.02;0.63;;;;;;;7.93;80.06;101247.97;5017975;28;20163;-59
2022/01/29 01:24:48;;;;;;;1.58;0.88;;;;;;;7.98;80.42;101242.09;5025672;28;20053;-60
2022/01/29 01:27:15;;;;;;;1.65;1.17;;;;;;;8.08;80.60;101229.47;5025620;28;20579;-58
2022/01/29 01:29:43;;;;;;;2.58;1.60;;;;;;;8.13;80.83;101225.28;5023356;28;20605;-55
2022/01/29 01:32:11;;;;;;;1.90;0.85;;;;;;;8.17;80.74;101226.25;5025545;28;20793;-58
2022/01/29 01:34:44;;;;;;;1.98;1.20;;;;;;;8.22;79.57;101220.38;5022856;28;20045;-57
2022/01/29 01:37:17;;;;;;;1.25;0.57;;;;;;;8.28;79.87;101223.94;5023006;28;20475;-57
2022/01/29 01:39:43;;;;;;;2.22;1.52;;;;;;;8.30;79.26;101215.41;5024417;28;20045;-57
2022/01/29 01:42:10;;;;;;;1.63;0.90;;;;;;;8.32;79.87;101220.59;5030888;28;20037;-53
2022/01/29 01:44:42;;;;;;;3.83;0.82;;;;;;;8.36;80.30;101222.44;5027439;28;20095;-58
2022/01/29 01:47:09;;;;;;;2.47;1.08;;;;;;;8.38;80.21;101220.78;5028347;28;20053;-57
2022/01/29 01:49:37;;;;;;;1.58;0.55;;;;;;;8.39;79.89;101212.19;5028848;28;20037;-58
2022/01/29 01:52:07;;;;;;;1.52;0.95;;;;;;;8.42;79.86;101216.53;5024352;28;20042;-57
2022/01/29 01:54:34;;;;;;;2.67;0.88;;;;;;;8.43;79.48;101214.00;5025343;28;20049;-57
2022/01/29 01:57:00;;;;;;;1.00;0.50;;;;;;;8.44;79.39;101208.00;5026388;28;20049;-58
2022/01/29 01:59:28;;;;;;;1.05;0.52;;;;;;;8.49;80.41;101208.13;5025843;28;20169;-55
2022/01/29 02:01:55;;;;;;;1.98;0.55;;;;;;;8.53;79.98;101199.66;5028916;28;20115;-57
2022/01/29 02:04:22;;;;;;;1.90;0.60;;;;;;;8.57;80.17;101198.00;5026029;28;20045;-56
2022/01/29 02:06:50;;;;;;;1.80;0.68;;;;;;;8.60;79.66;101188.63;5027852;28;20037;-58
2022/01/29 02:09:19;;;;;;;1.40;0.73;;;;;;;8.60;80.08;101191.22;5025255;28;20069;-57
2022/01/29 02:11:56;;;;;;;0.45;0.38;;;;;;;8.60;80.16;101190.31;5027602;28;20052;-58
2022/01/29 02:14:28;;;;;;;0.90;0.52;;;;;;;8.59;79.51;101188.59;5026521;28;20104;-57
2022/01/29 02:16:55;;;;;;;0.82;0.43;;;;;;;8.59;79.60;101188.59;5027533;28;20063;-59
2022/01/29 02:19:21;;;;;;;0.52;0.40;;;;;;;8.58;80.03;101179.09;5025110;28;20073;-57
2022/01/29 02:21:48;;;;;;;4.03;0.95;;;;;;;8.57;80.26;101177.34;5028415;28;20057;-58
2022/01/29 02:24:15;;;;;;;1.52;1.08;;;;;;;8.59;79.46;101189.47;5025494;28;20076;-56
2022/01/29 02:26:42;;;;;;;1.52;0.73;;;;;;;8.55;79.79;101179.03;5024285;28;20478;-56
2022/01/29 02:29:08;;;;;;;1.67;0.60;;;;;;;8.56;80.14;101188.50;5027766;28;20050;-56
2022/01/29 02:31:35;;;;;;;1.48;0.75;;;;;;;8.59;80.62;101196.34;5026919;28;20103;-59
2022/01/29 02:34:04;;;;;;;2.72;0.68;;;;;;;8.59;79.55;101188.59;5022392;28;20152;-57
2022/01/29 02:36:30;;;;;;;0.90;0.57;;;;;;;8.58;80.07;101202.34;5026915;28;20048;-57
2022/01/29 02:38:59;;;;;;;1.50;1.25;;;;;;;8.58;80.19;101192.00;5024613;28;20041;-57
2022/01/29 02:41:27;;;;;;;2.45;1.02;;;;;;;8.57;79.81;101187.66;5026491;28;20116;-56
2022/01/29 02:43:59;;;;;;;2.13;0.55;;;;;;;8.57;80.27;101175.63;5027403;28;20146;-56
2022/01/29 02:46:42;;;;;;;0.80;0.50;;;;;;;8.58;80.82;101176.53;5025280;28;20068;-56
2022/01/29 02:49:08;;;;;;;1.85;0.73;;;;;;;8.62;79.72;101180.91;5027613;28;20064;-59
2022/01/29 02:51:42;;;;;;;1.60;0.80;;;;;;;8.63;79.67;101169.75;5025208;28;20041;-58
2022/01/29 02:54:08;;;;;;;2.65;0.82;;;;;;;8.65;79.71;101170.63;5027664;28;20053;-57
2022/01/29 02:56:35;;;;;;;1.42;0.63;;;;;;;8.68;80.07;101162.13;5026266;28;20132;-60
2022/01/29 02:59:01;;;;;;;1.20;0.68;;;;;;;8.71;79.39;101167.31;5025449;28;20048;-56
2022/01/29 03:01:28;;;;;;;2.65;0.63;;;;;;;8.72;79.63;101164.78;5025472;28;20045;-58
2022/01/29 03:03:55;;;;;;;1.02;0.70;;;;;;;8.76;80.01;101164.84;5025176;28;20128;-57
2022/01/29 03:06:22;;;;;;;1.50;0.52;;;;;;;8.78;80.00;101158.03;5027594;28;20132;-54
2022/01/29 03:08:49;;;;;;;3.17;0.57;;;;;;;8.79;79.64;101154.59;5026220;28;20041;-59
2022/01/29 03:11:19;;;;;;;2.17;0.68;;;;;;;8.82;79.46;101154.66;5025228;28;20049;-58
2022/01/29 03:13:47;;;;;;;1.63;0.63;;;;;;;8.84;80.24;101158.16;5024953;28;20100;-59
2022/01/29 03:16:14;;;;;;;1.10;0.40;;;;;;;8.87;79.94;101150.47;5025565;28;20045;-57
2022/01/29 03:18:41;;;;;;;0.80;0.40;;;;;;;8.88;79.32;101147.03;5023661;28;20053;-57
2022/01/29 03:21:07;;;;;;;3.47;1.23;;;;;;;8.92;79.89;101143.69;5029761;28;20441;-59
2022/01/29 03:23:34;;;;;;;1.20;0.40;;;;;;;8.91;79.89;101138.50;5026116;28;20057;-58
2022/01/29 03:26:01;;;;;;;1.05;0.60;;;;;;;8.95;78.89;101145.50;5026448;28;20120;-53
2022/01/29 03:28:28;;;;;;;1.02;0.43;;;;;;;8.96;79.20;101147.22;5023053;28;20111;-58
2022/01/29 03:30:55;;;;;;;0.95;0.65;;;;;;;8.98;79.41;101149.00;5023142;28;20057;-57
2022/01/29 03:33:23;;;;;;;0.82;0.45;;;;;;;8.99;79.31;101142.97;5022965;28;20053;-59
2022/01/29 03:35:50;;;;;;;1.42;0.68;;;;;;;8.98;79.03;101141.25;5028096;28;20095;-59
2022/01/29 03:38:17;;;;;;;3.70;0.82;;;;;;;9.00;79.44;101139.56;5022387;28;20057;-59
2022/01/29 03:40:47;;;;;;;2.25;0.73;;;;;;;9.02;79.05;101136.16;5028267;28;20057;-56
2022/01/29 03:43:23;;;;;;;2.38;0.52;;;;;;;9.02;78.81;101126.66;5021998;28;20049;-58
2022/01/29 03:45:50;;;;;;;2.40;0.63;;;;;;;9.00;78.93;101129.25;5022207;28;20045;-57
2022/01/29 03:48:17;;;;;;;1.13;0.95;;;;;;;9.02;78.67;101120.63;5026422;28;20578;-56
2022/01/29 03:50:43;;;;;;;1.40;0.47;;;;;;;9.00;78.71;101111.16;5027297;28;20069;-57
2022/01/29 03:53:10;;;;;;;0.90;0.52;;;;;;;9.02;79.16;101111.16;5024919;28;20107;-54
2022/01/29 03:55:36;;;;;;;3.85;0.73;;;;;;;9.03;78.83;101109.44;5026975;28;20053;-58
2022/01/29 03:58:03;;;;;;;0.95;0.40;;;;;;;9.00;78.66;101103.41;5024152;28;20095;-60
2022/01/29 04:00:30;;;;;;;1.55;0.50;;;;;;;9.00;79.09;101103.41;5023562;28;20042;-57
2022/01/29 04:02:56;;;;;;;1.95;0.65;;;;;;;8.98;78.72;101099.91;5024443;28;20049;-56
2022/01/29 04:05:26;;;;;;;1.52;0.50;;;;;;;8.97;78.25;101098.16;5024907;28;20119;-58
2022/01/29 04:07:53;;;;;;;0.57;0.57;;;;;;;8.99;78.49;101085.28;5023429;28;20037;-56
2022/01/29 04:10:20;;;;;;;2.13;0.63;;;;;;;8.98;78.49;101099.91;5026938;28;20049;-55
2022/01/29 04:12:50;;;;;;;1.38;0.40;;;;;;;8.95;77.83;101089.50;5024445;28;20045;-55
2022/01/29 04:15:17;;;;;;;1.05;0.68;;;;;;;8.97;78.44;101092.09;5023227;28;20076;-53
2022/01/29 04:17:44;;;;;;;1.67;0.32;;;;;;;8.96;78.39;101086.09;5023005;28;20525;-55
2022/01/29 04:20:11;;;;;;;2.60;0.50;;;;;;;8.95;78.18;101084.31;5024654;28;20123;-59
2022/01/29 04:22:37;;;;;;;1.88;0.70;;;;;;;8.96;77.86;101080.91;5024506;28;20038;-58
2022/01/29 04:25:04;;;;;;;1.35;0.47;;;;;;;8.95;78.28;101081.75;5023246;28;20045;-58
2022/01/29 04:27:37;;;;;;;1.95;0.35;;;;;;;8.95;78.29;101083.47;5025518;28;20061;-58
2022/01/29 04:30:11;;;;;;;1.13;0.80;;;;;;;8.92;77.42;101079.09;5022528;28;20065;-55
2022/01/29 04:35:24;;;;;;;2.25;0.93;;;;;;;8.88;77.86;101082.44;5036659;28;20049;-60
2022/01/29 04:37:51;;;;;;;1.27;0.65;;;;;;;8.89;77.73;101084.22;5025361;28;20108;-52
2022/01/29 04:40:19;;;;;;;1.35;0.40;;;;;;;8.89;77.20;101079.03;5023760;28;20493;-59
2022/01/29 04:42:46;;;;;;;1.58;0.40;;;;;;;8.87;77.76;101080.72;5024845;28;20088;-56
2022/01/29 04:45:12;;;;;;;1.55;0.65;;;;;;;8.87;77.79;101078.13;5023662;28;20037;-58
2022/01/29 04:47:39;;;;;;;1.27;0.65;;;;;;;8.87;77.36;101073.84;5028723;28;20099;-56
2022/01/29 04:50:06;;;;;;;2.35;0.68;;;;;;;8.89;77.51;101073.88;5023982;28;20115;-59
2022/01/29 04:52:33;;;;;;;2.30;0.63;;;;;;;8.91;77.06;101074.75;5031322;28;20123;-59
2022/01/29 04:55:00;;;;;;;3.33;1.05;;;;;;;8.95;77.59;101073.13;5025223;28;20081;-56
2022/01/29 04:57:26;;;;;;;1.02;0.50;;;;;;;8.97;77.09;101067.16;5028790;28;20065;-59
2022/01/29 04:59:53;;;;;;;0.80;0.50;;;;;;;8.99;76.91;101064.59;5026398;28;20497;-54
2022/01/29 05:02:19;;;;;;;1.60;0.63;;;;;;;9.00;77.24;101062.06;5031007;28;23257;-59
2022/01/29 05:04:46;;;;;;;1.77;0.52;;;;;;;8.99;76.63;101057.69;5026146;28;20057;-55
2022/01/29 05:07:13;;;;;;;3.10;0.70;;;;;;;9.04;77.20;101051.75;5031898;28;20108;-55
2022/01/29 05:09:39;;;;;;;0.50;0.43;;;;;;;9.03;76.96;101055.19;5026025;28;20045;-57
2022/01/29 05:12:07;;;;;;;0.82;0.43;;;;;;;9.02;76.85;101037.94;5029145;28;20045;-59
2022/01/29 05:14:43;;;;;;;1.35;1.13;;;;;;;8.99;76.47;101049.94;5025176;28;20067;-58
2022/01/29 05:26:50;;;;;;;2.08;0.38;;;;;;;8.97;76.54;101045.59;5031106;28;20084;-59
2022/01/29 05:28:15;;;;;;;0.85;0.43;;;;;;;8.95;75.89;101052.47;5018781;28;20074;-56
2022/01/29 05:30:42;;;;;;;2.63;0.50;;;;;;;8.95;76.04;101058.47;5021154;28;20513;-57
2022/01/29 05:33:09;;;;;;;0.80;0.40;;;;;;;8.95;75.84;101052.47;5027782;28;20054;-57
2022/01/29 05:35:35;;;;;;;3.65;0.50;;;;;;;8.97;75.70;101055.94;5027462;28;20045;-58
2022/01/29 05:38:02;;;;;;;1.20;0.68;;;;;;;8.96;76.17;101049.03;5029800;28;20076;-59
2022/01/29 05:40:29;;;;;;;0.52;0.40;;;;;;;8.94;75.98;101051.59;5025455;28;20049;-56
2022/01/29 05:42:55;;;;;;;1.45;0.40;;;;;;;8.95;76.00;101053.31;5022573;28;20053;-58
2022/01/29 05:45:22;;;;;;;0.93;0.50;;;;;;;8.95;75.84;101048.16;5030970;28;20104;-57
2022/01/29 05:47:48;;;;;;;1.38;0.35;;;;;;;8.96;76.18;101039.56;5026761;28;20057;-55
2022/01/29 05:50:15;;;;;;;4.22;1.25;;;;;;;8.95;76.56;101042.97;5026449;28;20135;-57
2022/01/29 05:52:41;;;;;;;2.80;0.98;;;;;;;8.96;75.77;101047.34;5028031;28;20053;-56
2022/01/29 05:55:09;;;;;;;1.08;0.50;;;;;;;8.94;76.14;101050.69;5021695;28;20077;-54
2022/01/29 05:57:35;;;;;;;2.03;0.98;;;;;;;8.92;75.99;101037.75;5025441;28;20041;-57
2022/01/29 06:00:05;;;;;;;3.03;0.73;;;;;;;8.94;76.37;101036.06;5024274;28;20042;-57
2022/01/29 06:02:31;;;;;;;1.58;0.75;;;;;;;8.95;76.11;101030.06;5022574;28;20486;-56
2022/01/29 06:04:58;;;;;;;1.15;0.45;;;;;;;8.97;75.67;101036.16;5026910;28;20045;-55
2022/01/29 06:07:25;;;;;;;1.05;0.65;;;;;;;8.98;76.22;101032.72;5027252;28;20673;-55
2022/01/29 06:09:51;;;;;;;2.13;0.73;;;;;;;8.99;76.34;101021.53;5023983;28;20684;-60
2022/01/29 06:12:18;;;;;;;1.73;0.57;;;;;;;9.02;75.98;101027.59;5026540;28;20095;-57
2022/01/29 06:14:44;;;;;;;2.45;0.95;;;;;;;9.03;75.47;101019.88;5024939;28;20046;-56
2022/01/29 06:17:11;;;;;;;0.60;0.47;;;;;;;9.05;75.80;101027.69;5025146;28;20045;-54
2022/01/29 06:19:38;;;;;;;1.77;1.17;;;;;;;9.06;75.88;101019.06;5028483;28;20051;-58
2022/01/29 06:22:09;;;;;;;3.13;0.60;;;;;;;9.08;75.90;101022.53;5025145;28;20042;-58
2022/01/29 06:24:36;;;;;;;0.93;0.50;;;;;;;9.07;75.77;101013.06;5025669;28;20076;-58
2022/01/29 06:27:03;;;;;;;1.98;0.57;;;;;;;9.11;75.70;101027.78;5026999;28;20037;-57
2022/01/29 06:29:29;;;;;;;1.70;0.52;;;;;;;9.12;75.63;101019.19;5024051;28;20069;-56
2022/01/29 06:31:56;;;;;;;2.00;0.50;;;;;;;9.11;75.59;101012.25;5030388;28;20556;-55
2022/01/29 06:34:22;;;;;;;0.93;0.38;;;;;;;9.09;75.14;101004.47;5026173;28;20045;-54
2022/01/29 06:36:49;;;;;;;1.40;0.60;;;;;;;9.10;75.66;101001.06;5027900;28;20061;-55
2022/01/29 06:39:16;;;;;;;2.10;0.80;;;;;;;9.07;75.69;100984.63;5025889;28;20077;-53
2022/01/29 06:41:42;;;;;;;2.65;0.52;;;;;;;9.07;75.11;100989.78;5022929;28;20115;-55
2022/01/29 06:44:09;;;;;;;1.75;0.60;;;;;;;9.07;75.01;100979.47;5025885;28;20053;-57
2022/01/29 06:46:37;;;;;;;3.50;0.60;;;;;;;9.05;75.47;100987.19;5024298;28;20126;-58
2022/01/29 06:49:04;;;;;;;2.28;0.98;;;;;;;9.03;74.91;100977.66;5021382;28;20068;-56
2022/01/29 06:51:30;;;;;;;4.18;0.77;;;;;;;9.00;74.91;100976.78;5022867;28;20524;-59
2022/01/29 06:53:57;;;;;;;0.90;0.40;;;;;;;8.99;75.54;100972.44;5022604;28;20053;-57
2022/01/29 06:56:25;;;;;;;2.38;0.93;;;;;;;8.96;75.35;100974.97;5019971;28;20046;-59
2022/01/29 06:58:51;;;;;;;24.30;10.07;;;;;;;8.94;75.01;100984.41;5025190;28;20112;-57
2022/01/29 07:01:36;;;;;;;7.03;4.45;;;;;;;8.91;75.59;100989.50;5018967;28;20085;-56
2022/01/29 07:04:03;;;;;;;6.63;3.03;;;;;;;8.90;75.21;100994.63;5025118;28;20041;-59
2022/01/29 07:06:29;;;;;;;7.82;5.55;;;;;;;8.91;75.20;100994.66;5024366;28;20049;-56
2022/01/29 07:08:58;;;;;;;2.33;1.33;;;;;;;8.91;75.52;101012.75;5025110;28;20053;-57
2022/01/29 07:11:25;;;;;;;2.20;1.00;;;;;;;8.92;75.45;101013.63;5024721;28;20041;-54
2022/01/29 07:14:00;;;;;;;2.15;1.10;;;;;;;8.94;75.04;101010.25;5021212;28;20141;-56
2022/01/29 07:16:28;;;;;;;2.92;0.88;;;;;;;8.94;75.40;101015.41;5023494;28;20087;-57
2022/01/29 07:18:55;;;;;;;2.00;0.75;;;;;;;8.97;75.54;101020.66;5024972;28;20096;-59
2022/01/29 07:21:22;;;;;;;1.00;0.50;;;;;;;8.99;75.35;101021.53;5023256;28;20041;-57
2022/01/29 07:23:48;;;;;;;2.05;1.00;;;;;;;8.99;75.25;101033.59;5023686;28;20045;-55
2022/01/29 07:26:15;;;;;;;1.50;0.75;;;;;;;8.98;75.76;101019.78;5025520;28;20049;-53
2022/01/29 07:28:42;;;;;;;2.28;0.70;;;;;;;9.00;75.11;101033.63;5027124;28;21159;-54
2022/01/29 07:31:09;;;;;;;1.75;1.27;;;;;;;9.05;75.13;101012.16;5024917;28;20076;-53
2022/01/29 07:33:35;;;;;;;2.63;0.88;;;;;;;9.06;75.24;101019.06;5024503;28;20073;-53
2022/01/29 07:36:03;;;;;;;1.20;0.70;;;;;;;9.06;74.85;101014.78;5023921;28;20131;-56
2022/01/29 07:38:29;;;;;;;3.50;1.23;;;;;;;9.05;75.33;101012.16;5024475;28;20041;-57
2022/01/29 07:40:56;;;;;;;9.10;2.67;;;;;;;9.06;75.03;101008.72;5026292;28;20099;-57
2022/01/29 07:43:22;;;;;;;5.15;1.98;;;;;;;9.06;75.60;101011.31;5024536;28;20057;-58
2022/01/29 07:45:49;;;;;;;4.65;1.95;;;;;;;9.05;74.91;101009.59;5026798;28;20042;-55
2022/01/29 07:48:16;;;;;;;7.07;1.83;;;;;;;9.05;75.93;101007.00;5021609;28;20053;-56
2022/01/29 07:50:42;;;;;;;11.60;1.92;;;;;;;9.08;75.46;101009.63;5021073;28;20080;-55
2022/01/29 07:53:09;;;;;;;5.18;1.83;;;;;;;9.08;75.50;101001.88;5018477;28;20054;-54
2022/01/29 07:55:36;;;;;;;8.10;2.40;;;;;;;9.11;75.44;101001.94;5029939;28;20042;-58
2022/01/29 07:58:03;;;;;;;5.25;1.73;;;;;;;9.12;75.58;100993.34;5017797;28;20111;-58
2022/01/29 08:00:34;;;;;;;7.20;2.35;;;;;;;9.16;74.73;100989.09;5017861;28;20053;-58
2022/01/29 08:03:01;;;;;;;4.57;1.77;;;;;;;9.17;75.10;100986.56;5019881;28;20494;-58
2022/01/29 08:05:28;;;;;;;6.65;1.63;;;;;;;9.18;75.42;100990.88;5018039;28;20084;-60
2022/01/29 08:07:54;;;;;;;4.68;1.35;;;;;;;9.19;75.35;100992.59;5022603;28;20092;-56
2022/01/29 08:10:21;;;;;;;4.72;1.20;;;;;;;9.22;74.96;100996.97;5021926;28;20057;-57
2022/01/29 08:12:48;;;;;;;9.00;2.10;;;;;;;9.23;74.63;100991.81;5020555;28;20112;-56
2022/01/29 08:15:15;;;;;;;2.53;0.93;;;;;;;9.25;75.41;100989.25;5017933;28;20053;-57
2022/01/29 08:17:41;;;;;;;3.65;1.15;;;;;;;9.28;75.32;100983.28;5020772;28;20049;-60
2022/01/29 08:20:08;;;;;;;3.22;1.13;;;;;;;9.30;75.07;100973.84;5021407;28;20103;-54
2022/01/29 08:22:35;;;;;;;3.10;1.52;;;;;;;9.33;75.19;100986.81;5021368;28;20123;-59
2022/01/29 08:25:02;;;;;;;3.83;1.10;;;;;;;9.34;75.36;100979.09;5020192;28;20103;-56
2022/01/29 08:27:28;;;;;;;14.88;3.85;;;;;;;9.38;74.94;100980.88;5023268;28;20107;-56
2022/01/29 08:29:55;;;;;;;18.83;5.93;;;;;;;9.39;75.36;100961.94;5022701;28;20485;-56
2022/01/29 08:32:21;;;;;;;13.18;3.08;;;;;;;9.43;74.93;100962.88;5025236;28;20494;-56
2022/01/29 08:34:48;;;;;;;15.57;3.40;;;;;;;9.45;75.38;100961.16;5025490;28;20065;-59
2022/01/29 08:37:14;;;;;;;18.35;4.65;;;;;;;9.46;74.81;100949.97;5024676;28;20564;-56
2022/01/29 08:39:43;;;;;;;13.68;3.90;;;;;;;9.43;75.06;100942.19;5024073;28;20041;-58
2022/01/29 08:42:09;;;;;;;7.38;1.83;;;;;;;9.47;74.71;100927.56;5025192;28;20049;-55
2022/01/29 08:44:36;;;;;;;5.45;1.40;;;;;;;9.50;74.52;100928.47;5024007;28;20143;-58
2022/01/29 08:47:03;;;;;;;11.45;2.28;;;;;;;9.64;74.83;100925.25;5027877;28;20042;-55
2022/01/29 08:49:30;;;;;;;9.98;3.20;;;;;;;9.99;73.88;100932.66;5023258;28;20096;-58
2022/01/29 08:51:56;;;;;;;5.57;1.52;;;;;;;10.19;73.67;100929.47;5025164;28;20091;-57
2022/01/29 08:54:23;;;;;;;6.38;1.50;;;;;;;10.25;73.54;100939.91;5029991;28;20049;-56
2022/01/29 08:56:49;;;;;;;3.53;1.23;;;;;;;10.24;72.95;100943.34;5027630;28;20100;-60
2022/01/29 08:59:16;;;;;;;4.85;2.17;;;;;;;10.23;72.77;100951.97;5029713;28;20429;-57
2022/01/29 09:01:42;;;;;;;5.78;2.10;;;;;;;10.23;73.04;100977.00;5026527;28;20498;-55
2022/01/29 09:04:09;;;;;;;3.75;1.25;;;;;;;10.28;72.84;100962.38;5026843;28;20532;-56
2022/01/29 09:06:36;;;;;;;2.13;0.90;;;;;;;10.28;72.63;100955.50;5028718;28;20050;-56
2022/01/29 09:09:03;;;;;;;3.53;0.63;;;;;;;10.27;73.13;100965.84;5021574;28;20049;-59
2022/01/29 09:11:29;;;;;;;2.83;0.85;;;;;;;10.27;72.72;100968.41;5024005;28;20112;-58
2022/01/29 09:13:56;;;;;;;0.95;0.43;;;;;;;10.27;72.83;100964.09;5024487;28;20058;-54
2022/01/29 09:16:22;;;;;;;1.75;0.93;;;;;;;10.26;72.79;100962.38;5022761;28;20119;-57
2022/01/29 09:18:49;;;;;;;1.65;0.60;;;;;;;10.25;73.04;100955.44;5025084;28;20045;-57
2022/01/29 09:21:16;;;;;;;0.90;0.63;;;;;;;10.26;73.49;100956.31;5026585;28;20115;-55
2022/01/29 09:23:43;;;;;;;2.05;0.73;;;;;;;10.24;72.72;100953.69;5025310;28;20037;-56
2022/01/29 09:26:10;;;;;;;3.10;1.13;;;;;;;10.23;73.35;100959.72;5026742;28;20139;-56
2022/01/29 09:28:36;;;;;;;0.98;0.45;;;;;;;10.21;72.91;100958.84;5027071;28;20073;-56
2022/01/29 09:31:03;;;;;;;5.07;1.02;;;;;;;10.20;73.47;100972.63;5025014;28;20088;-58
2022/01/29 09:33:30;;;;;;;2.70;0.60;;;;;;;10.21;73.25;100971.78;5030044;28;20037;-60
2022/01/29 09:35:56;;;;;;;1.60;0.47;;;;;;;10.25;73.43;100970.09;5023960;28;20050;-57
2022/01/29 09:38:23;;;;;;;1.67;0.50;;;;;;;10.25;72.95;100971.00;5030417;28;20258;-57
2022/01/29 09:40:50;;;;;;;2.88;0.55;;;;;;;10.32;73.50;100939.97;5025375;28;20054;-59
2022/01/29 09:43:17;;;;;;;1.08;0.32;;;;;;;10.39;73.07;100941.81;5026809;28;20053;-56
2022/01/29 09:45:44;;;;;;;1.63;0.77;;;;;;;10.47;72.97;100945.38;5023114;28;20069;-56
2022/01/29 09:48:11;;;;;;;2.78;0.40;;;;;;;10.51;73.26;100949.75;5024735;28;20115;-59
2022/01/29 09:50:39;;;;;;;1.02;0.30;;;;;;;10.61;73.42;100960.22;5023642;28;20049;-58
2022/01/29 09:53:07;;;;;;;2.22;2.13;;;;;;;10.62;72.76;100974.91;5026578;28;20744;-59
2022/01/29 09:55:33;;;;;;;1.63;1.52;;;;;;;10.64;72.90;100981.00;5027386;28;20432;-59
2022/01/29 09:58:00;;;;;;;0.57;0.40;;;;;;;10.62;72.80;100964.56;5026857;28;20041;-56
2022/01/29 10:00:27;;;;;;;1.02;0.50;;;;;;;10.59;73.13;100959.34;5024237;28;20091;-57
2022/01/29 10:03:15;;;;;;;1.00;0.38;;;;;;;10.61;72.20;100973.19;5024612;28;20049;-56
2022/01/29 10:05:43;;;;;;;1.20;1.10;;;;;;;10.92;72.48;100976.13;5040610;28;20843;-59
2022/01/29 10:08:11;;;;;;;3.42;1.05;;;;;;;11.08;71.70;100966.75;5025946;28;20409;-57
2022/01/29 10:10:41;;;;;;;0.43;0.40;;;;;;;11.23;71.92;100945.31;5022634;28;20069;-58
2022/01/29 10:13:33;;;;;;;1.85;0.40;;;;;;;11.58;71.44;100951.63;5022986;28;20159;-55
2022/01/29 10:16:19;;;;;;;0.65;0.50;;;;;;;12.41;70.08;100954.75;5036914;28;20041;-56
2022/01/29 10:19:04;;;;;;;1.67;0.77;;;;;;;13.18;68.82;100953.22;5024925;28;20060;-56
2022/01/29 10:21:34;;;;;;;5.22;1.60;;;;;;;13.84;66.31;100941.94;5022954;28;20051;-55
2022/01/29 10:24:06;;;;;;;3.53;1.25;;;;;;;14.32;64.74;100940.94;5024673;28;20099;-56
2022/01/29 10:26:37;;;;;;;5.10;1.95;;;;;;;15.02;63.53;100931.91;5036387;28;20049;-54
2022/01/29 10:29:07;;;;;;;6.82;1.73;;;;;;;15.72;61.74;100922.59;5024575;28;20049;-56
2022/01/29 10:31:43;;;;;;;3.88;1.02;;;;;;;16.18;60.38;100929.97;5025863;28;20049;-58
2022/01/29 10:34:28;;;;;;;4.28;1.67;;;;;;;16.53;58.49;100929.53;5030207;28;20053;-59
2022/01/29 10:37:17;;;;;;;3.33;1.88;;;;;;;16.79;55.89;100926.53;5025167;28;20440;-57
2022/01/29 10:39:49;;;;;;;2.20;0.82;;;;;;;16.94;58.01;100941.19;5034497;28;20107;-60
2022/01/29 10:42:37;;;;;;;2.42;0.45;;;;;;;17.06;55.76;100944.53;5027664;28;20053;-56
2022/01/29 10:45:07;;;;;;;4.20;1.02;;;;;;;17.02;55.09;100942.81;5028531;28;20049;-57
2022/01/29 10:47:53;;;;;;;;;;;;;;;16.73;54.83;100941.47;5022095;28;20060;-57
2022/01/29 10:50:20;;;;;;;3.15;0.70;;;;;;;16.42;56.33;100948.84;5033596;28;19986;-55
2022/01/29 10:52:48;;;;;;;2.45;0.60;;;;;;;16.00;56.87;100953.69;5018606;28;20103;-56
2022/01/29 10:55:16;;;;;;;2.22;1.08;;;;;;;15.55;57.46;100944.53;5016667;28;20066;-56
2022/01/29 10:57:44;;;;;;;1.85;0.55;;;;;;;15.13;58.46;100932.69;5017933;28;20163;-59
2022/01/29 11:00:31;;;;;;;2.22;0.90;;;;;;;14.72;59.07;100941.59;5018568;28;20160;-61
2022/01/29 11:03:00;;;;;;;5.32;1.13;;;;;;;14.49;60.19;100950.44;5021431;28;20052;-58
2022/01/29 11:05:31;;;;;;;1.92;0.80;;;;;;;14.22;60.77;100952.28;5017309;28;20049;-61
2022/01/29 11:08:01;;;;;;;3.28;0.95;;;;;;;13.94;61.63;100952.34;5018858;28;20049;-58
2022/01/29 11:10:28;;;;;;;2.33;0.40;;;;;;;13.74;62.25;100959.31;5022327;28;20064;-58
2022/01/29 11:12:56;;;;;;;2.38;0.52;;;;;;;13.59;62.28;100942.00;5016428;28;20056;-55
2022/01/29 11:15:25;;;;;;;2.83;0.50;;;;;;;13.45;63.44;100951.50;5018773;28;20325;-55
2022/01/29 11:17:55;;;;;;;2.65;1.63;;;;;;;13.27;63.78;100950.63;5021851;28;20394;-57
2022/01/29 11:20:21;;;;;;;3.03;0.82;;;;;;;13.17;63.89;100969.72;5016185;28;20757;-58
2022/01/29 11:22:50;;;;;;;6.70;1.17;;;;;;;13.08;63.51;100950.59;5017402;28;20056;-57
2022/01/29 11:25:22;;;;;;;4.47;0.77;;;;;;;12.96;63.98;100951.47;5019816;28;20049;-59
2022/01/29 11:28:11;;;;;;;2.85;0.65;;;;;;;12.81;63.71;100935.84;5021401;28;20482;-57
2022/01/29 11:30:37;;;;;;;3.40;0.82;;;;;;;12.79;63.77;100946.22;5030336;28;20526;-57
2022/01/29 11:33:04;;;;;;;1.30;0.50;;;;;;;12.69;63.93;100953.13;5017518;28;20172;-60
2022/01/29 11:35:31;;;;;;;4.22;1.08;;;;;;;12.64;64.01;100943.59;5021421;28;20064;-55
2022/01/29 11:38:11;;;;;;;2.15;0.60;;;;;;;12.55;64.30;100934.91;5021648;28;20143;-58
2022/01/29 11:40:44;;;;;;;1.58;0.70;;;;;;;12.49;65.33;100929.66;5019464;28;20540;-59
2022/01/29 11:43:27;;;;;;;2.78;0.70;;;;;;;12.39;65.57;100927.91;5017977;28;20049;-57
2022/01/29 11:46:12;;;;;;;1.95;0.43;;;;;;;12.38;64.93;100937.44;5021057;28;20041;-61
2022/01/29 11:48:51;;;;;;;0.85;0.43;;;;;;;12.34;66.11;100926.16;5019742;28;20073;-58